Time,TemperatureF,DewpointF,PressureIn,WindDirection,WindDirectionDegrees,WindSpeedMPH,WindSpeedGustMPH,Humidity,HourlyPrecipIn,Conditions,Clouds,dailyrainin,SoftwareType,DateUTC
2013-04-06 00:04:00,31.0,28.9,30.11,ESE,115,10.0,12.0,92,0.00,,,0.00,Wunderground v.1.15,2013-04-06 05:04:00,
2013-04-06 00:10:00,31.0,28.9,30.11,SE,131,9.0,10.0,92,0.00,,,0.00,Wunderground v.1.15,2013-04-06 05:10:00,
2013-04-06 00:15:00,30.9,28.9,30.11,SE,136,9.0,13.0,92,0.00,,,0.00,Wunderground v.1.15,2013-04-06 05:15:00,
2013-04-06 00:21:00,31.0,28.9,30.10,ESE,112,8.0,10.0,92,0.00,,,0.00,Wunderground v.1.15,2013-04-06 05:21:00,
2013-04-06 00:27:00,30.9,28.9,30.10,SE,134,8.0,10.0,92,0.00,,,0.00,Wunderground v.1.15,2013-04-06 05:27:00,
2013-04-06 00:33:00,30.9,28.9,30.10,ESE,115,8.0,14.0,92,0.00,,,0.00,Wunderground v.1.15,2013-04-06 05:33:00,
2013-04-06 00:39:00,31.0,28.9,30.10,East,87,8.0,14.0,92,0.00,,,0.00,Wunderground v.1.15,2013-04-06 05:39:00,
2013-04-06 00:44:00,31.0,28.9,30.09,ESE,123,7.0,14.0,92,0.00,,,0.00,Wunderground v.1.15,2013-04-06 05:44:00,
2013-04-06 00:50:00,31.0,28.9,30.09,ESE,120,8.0,14.0,92,0.00,,,0.00,Wunderground v.1.15,2013-04-06 05:50:00,
2013-04-06 00:56:00,31.0,28.9,30.09,SE,142,7.0,14.0,92,0.00,,,0.00,Wunderground v.1.15,2013-04-06 05:56:00,
2013-04-06 01:02:00,31.0,28.9,30.08,ESE,123,7.0,10.0,92,0.00,,,0.00,Wunderground v.1.15,2013-04-06 06:02:00,
2013-04-06 01:08:00,31.0,28.9,30.08,SSE,155,8.0,10.0,92,0.00,,,0.00,Wunderground v.1.15,2013-04-06 06:08:00,
2013-04-06 01:13:00,31.0,28.9,30.08,SE,141,8.0,11.0,92,0.00,,,0.00,Wunderground v.1.15,2013-04-06 06:13:00,
2013-04-06 01:18:00,31.0,28.9,30.08,ESE,107,7.0,12.0,92,0.00,,,0.00,Wunderground v.1.15,2013-04-06 06:18:00,
2013-04-06 01:24:00,30.9,28.9,30.08,SE,136,7.0,7.0,92,0.00,,,0.00,Wunderground v.1.15,2013-04-06 06:24:00,
2013-04-06 01:30:00,30.9,28.9,30.08,ESE,107,7.0,7.0,92,0.00,,,0.00,Wunderground v.1.15,2013-04-06 06:30:00,
2013-04-06 01:36:00,30.8,29.0,30.07,SE,126,6.0,17.0,93,0.00,,,0.00,Wunderground v.1.15,2013-04-06 06:36:00,
2013-04-06 01:42:00,30.8,29.0,30.07,ESE,107,7.0,17.0,93,0.00,,,0.00,Wunderground v.1.15,2013-04-06 06:42:00,
2013-04-06 01:48:00,30.8,29.0,30.07,ESE,114,8.0,17.0,93,0.00,,,0.00,Wunderground v.1.15,2013-04-06 06:48:00,
2013-04-06 01:53:00,30.8,29.0,30.06,ESE,113,8.0,17.0,93,0.00,,,0.00,Wunderground v.1.15,2013-04-06 06:53:00,
2013-04-06 01:58:00,30.8,29.0,30.06,SE,136,8.0,17.0,93,0.00,,,0.00,Wunderground v.1.15,2013-04-06 06:58:00,
2013-04-06 02:04:00,30.8,29.0,30.05,East,101,9.0,9.0,93,0.00,,,0.00,Wunderground v.1.15,2013-04-06 07:04:00,
2013-04-06 02:10:00,30.9,29.1,30.05,ESE,116,8.0,12.0,93,0.00,,,0.00,Wunderground v.1.15,2013-04-06 07:10:00,
2013-04-06 02:16:00,31.0,29.2,30.05,ESE,116,8.0,12.0,93,0.00,,,0.00,Wunderground v.1.15,2013-04-06 07:16:00,
2013-04-06 02:22:00,31.1,29.3,30.04,SE,129,8.0,9.0,93,0.00,,,0.00,Wunderground v.1.15,2013-04-06 07:22:00,
2013-04-06 02:27:00,31.2,29.4,30.03,SE,137,10.0,14.0,93,0.00,,,0.00,Wunderground v.1.15,2013-04-06 07:27:00,
2013-04-06 02:33:00,31.2,29.4,30.03,East,100,11.0,16.0,93,0.00,,,0.00,Wunderground v.1.15,2013-04-06 07:33:00,
2013-04-06 02:38:00,31.2,29.4,30.03,SE,125,11.0,16.0,93,0.00,,,0.00,Wunderground v.1.15,2013-04-06 07:38:00,
2013-04-06 02:43:00,31.1,29.3,30.02,ENE,76,12.0,16.0,93,0.00,,,0.00,Wunderground v.1.15,2013-04-06 07:43:00,
2013-04-06 02:49:00,31.1,29.3,30.02,ESE,117,11.0,16.0,93,0.00,,,0.00,Wunderground v.1.15,2013-04-06 07:49:00,
2013-04-06 02:54:00,31.0,28.9,30.02,East,101,10.0,16.0,92,0.00,,,0.00,Wunderground v.1.15,2013-04-06 07:54:00,
2013-04-06 03:00:00,30.9,28.9,30.02,ESE,121,10.0,11.0,92,0.00,,,0.00,Wunderground v.1.15,2013-04-06 08:00:00,
2013-04-06 03:06:00,30.8,28.8,30.02,ESE,119,10.0,11.0,92,0.00,,,0.00,Wunderground v.1.15,2013-04-06 08:06:00,
2013-04-06 03:12:00,30.7,28.7,30.02,ESE,114,10.0,14.0,92,0.00,,,0.00,Wunderground v.1.15,2013-04-06 08:12:00,
2013-04-06 03:18:00,30.6,28.6,30.02,ESE,104,9.0,14.0,92,0.00,,,0.00,Wunderground v.1.15,2013-04-06 08:18:00,
2013-04-06 03:24:00,30.5,28.5,30.02,ESE,105,9.0,10.0,92,0.00,,,0.00,Wunderground v.1.15,2013-04-06 08:24:00,
2013-04-06 03:29:00,30.3,28.3,30.02,ESE,111,8.0,10.0,92,0.00,,,0.00,Wunderground v.1.15,2013-04-06 08:29:00,
2013-04-06 03:34:00,30.3,28.3,30.01,SE,131,8.0,19.0,92,0.00,,,0.00,Wunderground v.1.15,2013-04-06 08:34:00,
2013-04-06 03:40:00,30.2,28.2,30.01,ESE,121,9.0,19.0,92,0.00,,,0.00,Wunderground v.1.15,2013-04-06 08:40:00,
2013-04-06 03:45:00,30.2,28.2,30.01,ESE,113,9.0,19.0,92,0.00,,,0.00,Wunderground v.1.15,2013-04-06 08:45:00,
2013-04-06 03:50:00,30.2,28.2,30.00,ESE,116,9.0,19.0,92,0.00,,,0.00,Wunderground v.1.15,2013-04-06 08:50:00,
2013-04-06 03:55:00,30.2,28.2,30.00,SE,140,9.0,19.0,92,0.00,,,0.00,Wunderground v.1.15,2013-04-06 08:55:00,
2013-04-06 04:01:00,30.2,28.2,30.00,ESE,113,9.0,9.0,92,0.00,,,0.00,Wunderground v.1.15,2013-04-06 09:01:00,
2013-04-06 04:06:00,30.2,28.2,30.00,South,175,9.0,10.0,92,0.00,,,0.00,Wunderground v.1.15,2013-04-06 09:06:00,
2013-04-06 04:11:00,30.1,28.1,29.99,East,85,9.0,9.0,92,0.00,,,0.00,Wunderground v.1.15,2013-04-06 09:11:00,
2013-04-06 04:17:00,30.1,28.1,29.99,SE,128,9.0,12.0,92,0.00,,,0.00,Wunderground v.1.15,2013-04-06 09:17:00,
2013-04-06 04:23:00,30.1,28.1,29.99,ESE,114,9.0,13.0,92,0.00,,,0.00,Wunderground v.1.15,2013-04-06 09:23:00,
2013-04-06 04:30:00,30.2,28.2,29.99,East,90,9.0,16.0,92,0.00,,,0.00,Wunderground v.1.15,2013-04-06 09:30:00,
2013-04-06 04:35:00,30.2,28.2,29.98,SE,124,10.0,17.0,92,0.00,,,0.00,Wunderground v.1.15,2013-04-06 09:35:00,
2013-04-06 04:41:00,30.2,28.2,29.98,ESE,110,9.0,11.0,92,0.00,,,0.00,Wunderground v.1.15,2013-04-06 09:41:00,
2013-04-06 04:46:00,30.2,28.2,29.98,ESE,103,9.0,17.0,92,0.00,,,0.00,Wunderground v.1.15,2013-04-06 09:46:00,
2013-04-06 04:52:00,30.2,28.2,29.98,ESE,117,10.0,17.0,92,0.00,,,0.00,Wunderground v.1.15,2013-04-06 09:52:00,
2013-04-06 04:58:00,30.2,28.2,29.97,ENE,69,10.0,17.0,92,0.00,,,0.00,Wunderground v.1.15,2013-04-06 09:58:00,
2013-04-06 05:03:00,30.2,28.2,29.97,ESE,105,11.0,14.0,92,0.00,,,0.00,Wunderground v.1.15,2013-04-06 10:03:00,
2013-04-06 05:09:00,30.2,28.2,29.97,ESE,114,10.0,15.0,92,0.00,,,0.00,Wunderground v.1.15,2013-04-06 10:09:00,
2013-04-06 05:14:00,30.3,28.3,29.96,ESE,113,10.0,12.0,92,0.00,,,0.00,Wunderground v.1.15,2013-04-06 10:14:00,
2013-04-06 05:20:00,30.3,28.3,29.96,SE,137,10.0,13.0,92,0.00,,,0.00,Wunderground v.1.15,2013-04-06 10:20:00,
2013-04-06 05:25:00,30.3,28.3,29.96,ESE,110,11.0,18.0,92,0.00,,,0.00,Wunderground v.1.15,2013-04-06 10:25:00,
2013-04-06 05:32:00,30.3,28.3,29.95,East,94,12.0,21.0,92,0.00,,,0.00,Wunderground v.1.15,2013-04-06 10:32:00,
2013-04-06 05:37:00,30.3,28.3,29.95,SE,127,13.0,21.0,92,0.00,,,0.00,Wunderground v.1.15,2013-04-06 10:37:00,
2013-04-06 05:43:00,30.3,28.3,29.95,ESE,105,11.0,21.0,92,0.00,,,0.00,Wunderground v.1.15,2013-04-06 10:43:00,
2013-04-06 05:48:00,30.3,28.3,29.95,ESE,106,11.0,21.0,92,0.00,,,0.00,Wunderground v.1.15,2013-04-06 10:48:00,
2013-04-06 05:54:00,30.3,28.3,29.94,SE,140,13.0,21.0,92,0.00,,,0.00,Wunderground v.1.15,2013-04-06 10:54:00,
2013-04-06 05:59:00,30.3,28.3,29.94,SE,124,12.0,21.0,92,0.00,,,0.00,Wunderground v.1.15,2013-04-06 10:59:00,
2013-04-06 06:05:00,30.4,28.4,29.94,NE,55,11.0,13.0,92,0.00,,,0.00,Wunderground v.1.15,2013-04-06 11:05:00,
2013-04-06 06:11:00,30.4,28.4,29.94,ESE,105,10.0,11.0,92,0.00,,,0.00,Wunderground v.1.15,2013-04-06 11:11:00,
2013-04-06 06:16:00,30.4,28.1,29.94,SE,124,10.0,13.0,91,0.00,,,0.00,Wunderground v.1.15,2013-04-06 11:16:00,
2013-04-06 06:22:00,30.5,28.2,29.94,SE,142,9.0,10.0,91,0.00,,,0.00,Wunderground v.1.15,2013-04-06 11:22:00,
2013-04-06 06:28:00,30.5,28.2,29.94,ESE,117,8.0,12.0,91,0.00,,,0.00,Wunderground v.1.15,2013-04-06 11:28:00,
2013-04-06 06:34:00,30.6,28.3,29.93,ESE,117,11.0,21.0,91,0.00,,,0.00,Wunderground v.1.15,2013-04-06 11:34:00,
2013-04-06 06:40:00,30.7,28.4,29.93,ESE,123,12.0,12.0,91,0.00,,,0.00,Wunderground v.1.15,2013-04-06 11:40:00,
2013-04-06 06:45:00,30.7,28.4,29.93,ESE,113,11.0,21.0,91,0.00,,,0.00,Wunderground v.1.15,2013-04-06 11:45:00,
2013-04-06 06:51:00,30.7,28.1,29.93,ESE,102,11.0,21.0,90,0.00,,,0.00,Wunderground v.1.15,2013-04-06 11:51:00,
2013-04-06 06:57:00,30.8,28.2,29.92,ESE,119,11.0,21.0,90,0.00,,,0.00,Wunderground v.1.15,2013-04-06 11:57:00,
2013-04-06 07:03:00,30.8,28.2,29.92,SE,132,10.0,15.0,90,0.00,,,0.00,Wunderground v.1.15,2013-04-06 12:03:00,
2013-04-06 07:09:00,30.9,28.0,29.92,SE,125,10.0,12.0,89,0.00,,,0.00,Wunderground v.1.15,2013-04-06 12:09:00,
2013-04-06 07:15:00,30.9,28.0,29.91,ESE,117,11.0,17.0,89,0.00,,,0.00,Wunderground v.1.15,2013-04-06 12:15:00,
2013-04-06 07:20:00,31.0,28.1,29.91,SE,138,12.0,13.0,89,0.00,,,0.00,Wunderground v.1.15,2013-04-06 12:20:00,
2013-04-06 07:26:00,31.0,27.9,29.91,ESE,117,13.0,17.0,88,0.00,,,0.00,Wunderground v.1.15,2013-04-06 12:26:00,
2013-04-06 07:32:00,31.1,28.0,29.90,ESE,116,10.0,18.0,88,0.00,,,0.00,Wunderground v.1.15,2013-04-06 12:32:00,
2013-04-06 07:38:00,31.2,28.1,29.90,SSE,148,10.0,18.0,88,0.00,,,0.00,Wunderground v.1.15,2013-04-06 12:38:00,
2013-04-06 07:43:00,31.3,28.2,29.90,SE,130,11.0,18.0,88,0.00,,,0.00,Wunderground v.1.15,2013-04-06 12:43:00,
2013-04-06 07:48:00,31.4,28.0,29.90,SE,141,10.0,18.0,87,0.00,,,0.00,Wunderground v.1.15,2013-04-06 12:48:00,
2013-04-06 07:54:00,31.5,28.1,29.89,East,84,11.0,18.0,87,0.00,,,0.00,Wunderground v.1.15,2013-04-06 12:54:00,
2013-04-06 08:00:00,31.7,28.3,29.89,SE,124,9.0,12.0,87,0.00,,,0.00,Wunderground v.1.15,2013-04-06 13:00:00,
2013-04-06 08:06:00,31.8,28.1,29.88,SE,140,10.0,16.0,86,0.00,,,0.00,Wunderground v.1.15,2013-04-06 13:06:00,
2013-04-06 08:11:00,31.9,28.2,29.88,SE,134,11.0,12.0,86,0.00,,,0.00,Wunderground v.1.15,2013-04-06 13:11:00,
2013-04-06 08:17:00,32.0,28.0,29.88,ENE,72,11.0,12.0,85,0.00,,,0.00,Wunderground v.1.15,2013-04-06 13:17:00,
2013-04-06 08:22:00,32.1,28.1,29.88,ESE,122,10.0,14.0,85,0.00,,,0.00,Wunderground v.1.15,2013-04-06 13:22:00,
2013-04-06 08:28:00,32.3,28.3,29.88,SE,128,10.0,14.0,85,0.00,,,0.00,Wunderground v.1.15,2013-04-06 13:28:00,
2013-04-06 08:34:00,32.5,28.2,29.88,ESE,108,10.0,24.0,84,0.00,,,0.00,Wunderground v.1.15,2013-04-06 13:34:00,
2013-04-06 08:39:00,32.6,28.3,29.87,SE,126,11.0,24.0,84,0.00,,,0.00,Wunderground v.1.15,2013-04-06 13:39:00,
2013-04-06 08:44:00,32.7,28.4,29.87,ESE,107,12.0,24.0,84,0.00,,,0.00,Wunderground v.1.15,2013-04-06 13:44:00,
2013-04-06 08:49:00,32.8,28.5,29.86,ESE,121,11.0,24.0,84,0.00,,,0.00,Wunderground v.1.15,2013-04-06 13:49:00,
2013-04-06 08:54:00,33.0,28.7,29.86,SE,140,10.0,24.0,84,0.00,,,0.00,Wunderground v.1.15,2013-04-06 13:54:00,
2013-04-06 09:00:00,33.2,28.9,29.85,SE,126,12.0,12.0,84,0.00,,,0.00,Wunderground v.1.15,2013-04-06 14:00:00,
2013-04-06 09:06:00,33.4,28.8,29.85,ESE,113,11.0,19.0,83,0.00,,,0.00,Wunderground v.1.15,2013-04-06 14:06:00,
2013-04-06 09:11:00,33.6,29.0,29.85,SE,145,10.0,11.0,83,0.00,,,0.00,Wunderground v.1.15,2013-04-06 14:11:00,
2013-04-06 09:16:00,33.9,29.3,29.84,SE,144,9.0,11.0,83,0.00,,,0.00,Wunderground v.1.15,2013-04-06 14:16:00,
2013-04-06 09:22:00,34.1,29.2,29.84,ESE,122,10.0,18.0,82,0.00,,,0.00,Wunderground v.1.15,2013-04-06 14:22:00,
2013-04-06 09:28:00,34.3,29.1,29.83,SE,132,11.0,18.0,81,0.00,,,0.01,Wunderground v.1.15,2013-04-06 14:28:00,
2013-04-06 09:34:00,34.5,29.0,29.83,ESE,109,10.0,23.0,80,0.00,,,0.01,Wunderground v.1.15,2013-04-06 14:34:00,
2013-04-06 09:39:00,34.6,29.4,29.82,East,92,10.0,23.0,81,0.00,,,0.01,Wunderground v.1.15,2013-04-06 14:39:00,
2013-04-06 09:45:00,34.7,29.2,29.83,SE,136,9.0,23.0,80,0.00,,,0.01,Wunderground v.1.15,2013-04-06 14:45:00,
2013-04-06 09:50:00,34.8,29.3,29.82,ESE,105,11.0,23.0,80,0.00,,,0.02,Wunderground v.1.15,2013-04-06 14:50:00,
2013-04-06 09:56:00,34.9,29.4,29.81,SE,134,11.0,23.0,80,0.00,,,0.02,Wunderground v.1.15,2013-04-06 14:56:00,
2013-04-06 10:01:00,35.1,29.6,29.81,SE,135,10.0,11.0,80,0.00,,,0.02,Wunderground v.1.15,2013-04-06 15:01:00,
2013-04-06 10:06:00,35.2,29.3,29.81,ESE,118,10.0,14.0,79,0.00,,,0.02,Wunderground v.1.15,2013-04-06 15:06:00,
2013-04-06 10:12:00,35.4,29.5,29.80,SE,146,11.0,14.0,79,0.00,,,0.03,Wunderground v.1.15,2013-04-06 15:12:00,
2013-04-06 10:18:00,35.6,29.7,29.80,SE,132,10.0,14.0,79,0.00,,,0.03,Wunderground v.1.15,2013-04-06 15:18:00,
2013-04-06 10:24:00,35.8,29.6,29.80,ESE,116,10.0,12.0,78,0.00,,,0.03,Wunderground v.1.15,2013-04-06 15:24:00,
2013-04-06 10:29:00,36.1,29.9,29.80,ESE,121,8.0,12.0,78,0.00,,,0.03,Wunderground v.1.15,2013-04-06 15:29:00,
2013-04-06 10:35:00,36.4,30.2,29.80,SE,138,7.0,20.0,78,0.00,,,0.04,Wunderground v.1.15,2013-04-06 15:35:00,
2013-04-06 10:40:00,36.6,29.7,29.79,SE,127,9.0,9.0,76,0.00,,,0.04,Wunderground v.1.15,2013-04-06 15:40:00,
2013-04-06 10:45:00,36.9,30.4,29.78,SE,134,10.0,20.0,77,0.00,,,0.04,Wunderground v.1.15,2013-04-06 15:45:00,
2013-04-06 10:51:00,37.3,30.4,29.78,NE,52,9.0,20.0,76,0.04,,,0.05,Wunderground v.1.15,2013-04-06 15:51:00,
2013-04-06 10:57:00,37.8,30.6,29.77,ESE,114,10.0,20.0,75,0.04,,,0.05,Wunderground v.1.15,2013-04-06 15:57:00,
2013-04-06 11:03:00,38.0,30.8,29.77,SSE,148,10.0,14.0,75,0.04,,,0.05,Wunderground v.1.15,2013-04-06 16:03:00,
2013-04-06 11:10:00,38.5,30.6,29.76,ESE,120,9.0,14.0,73,0.00,,,0.06,Wunderground v.1.15,2013-04-06 16:10:00,
2013-04-06 11:15:00,38.6,31.0,29.76,ESE,111,10.0,14.0,74,0.00,,,0.06,Wunderground v.1.15,2013-04-06 16:15:00,
2013-04-06 11:21:00,38.9,31.0,29.75,SE,128,8.0,9.0,73,0.06,,,0.07,Wunderground v.1.15,2013-04-06 16:21:00,
2013-04-06 11:26:00,39.4,31.5,29.75,ESE,117,8.0,16.0,73,0.06,,,0.07,Wunderground v.1.15,2013-04-06 16:26:00,
2013-04-06 11:32:00,39.7,31.4,29.75,SE,130,9.0,22.0,72,0.05,,,0.08,Wunderground v.1.15,2013-04-06 16:32:00,
2013-04-06 11:37:00,40.4,31.7,29.74,SE,132,9.0,22.0,71,0.05,,,0.08,Wunderground v.1.15,2013-04-06 16:37:00,
2013-04-06 11:43:00,40.4,31.4,29.73,ENE,77,13.0,24.0,70,0.07,,,0.09,Wunderground v.1.15,2013-04-06 16:43:00,
2013-04-06 11:49:00,40.5,31.5,29.73,ESE,115,14.0,24.0,70,0.06,,,0.09,Wunderground v.1.15,2013-04-06 16:49:00,
2013-04-06 11:55:00,40.5,31.5,29.73,SE,127,13.0,23.0,70,0.04,,,0.09,Wunderground v.1.15,2013-04-06 16:55:00,
2013-04-06 12:00:00,40.6,31.6,29.73,ESE,115,13.0,13.0,70,0.04,,,0.10,Wunderground v.1.15,2013-04-06 17:00:00,
2013-04-06 12:05:00,40.9,31.9,29.72,ESE,119,13.0,17.0,70,0.04,,,0.10,Wunderground v.1.15,2013-04-06 17:05:00,
2013-04-06 12:10:00,41.2,32.2,29.72,ESE,103,12.0,13.0,70,0.04,,,0.10,Wunderground v.1.15,2013-04-06 17:10:00,
2013-04-06 12:16:00,41.7,32.3,29.71,SE,136,12.0,18.0,69,0.00,,,0.10,Wunderground v.1.15,2013-04-06 17:16:00,
2013-04-06 12:21:00,41.9,32.1,29.71,ESE,117,12.0,13.0,68,0.00,,,0.10,Wunderground v.1.15,2013-04-06 17:21:00,
2013-04-06 12:27:00,41.9,32.8,29.70,SE,128,11.0,13.0,70,0.00,,,0.10,Wunderground v.1.15,2013-04-06 17:27:00,
2013-04-06 12:32:00,42.4,32.6,29.70,ESE,106,10.0,18.0,68,0.00,,,0.10,Wunderground v.1.15,2013-04-06 17:32:00,
2013-04-06 12:38:00,42.6,32.4,29.70,SE,131,11.0,20.0,67,0.00,,,0.10,Wunderground v.1.15,2013-04-06 17:38:00,
2013-04-06 12:44:00,42.9,32.7,29.69,SE,139,11.0,18.0,67,0.00,,,0.10,Wunderground v.1.15,2013-04-06 17:44:00,
2013-04-06 12:49:00,43.3,33.1,29.69,ESE,123,9.0,18.0,67,0.00,,,0.10,Wunderground v.1.15,2013-04-06 17:49:00,
2013-04-06 12:55:00,43.5,33.3,29.69,ESE,115,9.0,18.0,67,0.00,,,0.10,Wunderground v.1.15,2013-04-06 17:55:00,
2013-04-06 13:00:00,44.1,34.2,29.69,SE,132,8.0,16.0,68,0.00,,,0.10,Wunderground v.1.15,2013-04-06 18:00:00,
2013-04-06 13:05:00,44.2,33.9,29.69,SSE,151,8.0,16.0,67,0.00,,,0.10,Wunderground v.1.15,2013-04-06 18:05:00,
2013-04-06 13:11:00,44.7,34.4,29.68,SSE,163,7.0,10.0,67,0.00,,,0.10,Wunderground v.1.15,2013-04-06 18:11:00,
2013-04-06 13:17:00,44.7,33.3,29.68,ESE,118,8.0,14.0,64,0.00,,,0.10,Wunderground v.1.15,2013-04-06 18:17:00,
2013-04-06 13:22:00,44.9,34.2,29.68,SE,139,9.0,10.0,66,0.00,,,0.10,Wunderground v.1.15,2013-04-06 18:22:00,
2013-04-06 13:28:00,45.1,33.6,29.67,SSE,150,8.0,12.0,64,0.00,,,0.10,Wunderground v.1.15,2013-04-06 18:28:00,
2013-04-06 13:34:00,45.0,34.3,29.67,SE,143,8.0,23.0,66,0.00,,,0.10,Wunderground v.1.15,2013-04-06 18:34:00,
2013-04-06 13:40:00,45.1,33.6,29.67,SSE,155,9.0,9.0,64,0.00,,,0.10,Wunderground v.1.15,2013-04-06 18:40:00,
2013-04-06 13:45:00,45.2,34.5,29.67,SE,137,7.0,23.0,66,0.00,,,0.10,Wunderground v.1.15,2013-04-06 18:45:00,
2013-04-06 13:51:00,45.3,34.6,29.67,ESE,121,8.0,23.0,66,0.00,,,0.10,Wunderground v.1.15,2013-04-06 18:51:00,
2013-04-06 13:56:00,45.5,34.4,29.66,SE,138,8.0,23.0,65,0.00,,,0.10,Wunderground v.1.15,2013-04-06 18:56:00,
2013-04-06 14:02:00,45.5,34.4,29.66,South,175,9.0,12.0,65,0.00,,,0.10,Wunderground v.1.15,2013-04-06 19:02:00,
2013-04-06 14:08:00,45.2,34.9,29.65,SE,138,7.0,12.0,67,0.00,,,0.10,Wunderground v.1.15,2013-04-06 19:08:00,
2013-04-06 14:14:00,45.1,34.8,29.65,SE,140,8.0,12.0,67,0.00,,,0.10,Wunderground v.1.15,2013-04-06 19:14:00,
2013-04-06 14:19:00,45.1,34.4,29.64,SSE,165,8.0,8.0,66,0.00,,,0.10,Wunderground v.1.15,2013-04-06 19:19:00,
2013-04-06 14:24:00,45.2,34.9,29.64,ESE,117,7.0,12.0,67,0.00,,,0.10,Wunderground v.1.15,2013-04-06 19:24:00,
2013-04-06 14:30:00,45.4,34.7,29.64,SSE,147,8.0,12.0,66,0.00,,,0.10,Wunderground v.1.15,2013-04-06 19:30:00,
2013-04-06 14:35:00,45.0,34.3,29.64,ESE,109,8.0,16.0,66,0.00,,,0.10,Wunderground v.1.15,2013-04-06 19:35:00,
2013-04-06 14:40:00,44.6,34.3,29.64,SSE,167,8.0,16.0,67,0.00,,,0.10,Wunderground v.1.15,2013-04-06 19:40:00,
2013-04-06 14:46:00,44.5,35.0,29.64,SE,140,6.0,16.0,69,0.00,,,0.10,Wunderground v.1.15,2013-04-06 19:46:00,
2013-04-06 14:52:00,44.0,34.5,29.63,SSE,161,6.0,16.0,69,0.00,,,0.10,Wunderground v.1.15,2013-04-06 19:52:00,
2013-04-06 14:57:00,43.7,34.2,29.63,SSE,156,6.0,16.0,69,0.00,,,0.10,Wunderground v.1.15,2013-04-06 19:57:00,
2013-04-06 15:02:00,43.6,34.8,29.63,SSE,156,6.0,7.0,71,0.00,,,0.10,Wunderground v.1.15,2013-04-06 20:02:00,
2013-04-06 15:08:00,43.4,34.3,29.62,SSE,155,5.0,7.0,70,0.00,,,0.10,Wunderground v.1.15,2013-04-06 20:08:00,
2013-04-06 15:13:00,43.3,34.5,29.63,SE,138,6.0,7.0,71,0.00,,,0.10,Wunderground v.1.15,2013-04-06 20:13:00,
2013-04-06 15:19:00,43.2,34.4,29.62,SSE,155,5.0,7.0,71,0.00,,,0.10,Wunderground v.1.15,2013-04-06 20:19:00,
2013-04-06 15:24:00,43.2,34.8,29.61,SE,132,5.0,7.0,72,0.00,,,0.10,Wunderground v.1.15,2013-04-06 20:24:00,
2013-04-06 15:30:00,43.1,34.7,29.61,SE,132,5.0,5.0,72,0.00,,,0.10,Wunderground v.1.15,2013-04-06 20:30:00,
2013-04-06 15:36:00,43.3,34.5,29.60,SE,140,5.0,16.0,71,0.00,,,0.10,Wunderground v.1.15,2013-04-06 20:36:00,
2013-04-06 15:42:00,43.4,34.3,29.60,SE,142,6.0,16.0,70,0.00,,,0.10,Wunderground v.1.15,2013-04-06 20:42:00,
2013-04-06 15:47:00,43.2,34.8,29.60,ESE,123,5.0,16.0,72,0.00,,,0.10,Wunderground v.1.15,2013-04-06 20:47:00,
2013-04-06 15:52:00,43.1,34.3,29.59,SSE,159,5.0,16.0,71,0.00,,,0.10,Wunderground v.1.15,2013-04-06 20:52:00,
2013-04-06 15:58:00,43.2,35.1,29.59,SSE,151,5.0,16.0,73,0.00,,,0.10,Wunderground v.1.15,2013-04-06 20:58:00,
2013-04-06 16:04:00,43.2,35.1,29.58,East,98,5.0,7.0,73,0.00,,,0.10,Wunderground v.1.15,2013-04-06 21:04:00,
2013-04-06 16:10:00,43.1,35.0,29.58,ESE,113,4.0,4.0,73,0.00,,,0.10,Wunderground v.1.15,2013-04-06 21:10:00,
2013-04-06 16:15:00,43.2,35.1,29.58,ESE,120,4.0,6.0,73,0.00,,,0.10,Wunderground v.1.15,2013-04-06 21:15:00,
2013-04-06 16:21:00,43.2,35.8,29.58,ESE,117,4.0,5.0,75,0.00,,,0.11,Wunderground v.1.15,2013-04-06 21:21:00,
2013-04-06 16:27:00,43.0,36.0,29.57,SE,130,5.0,5.0,76,0.00,,,0.11,Wunderground v.1.15,2013-04-06 21:27:00,
2013-04-06 16:32:00,42.8,36.1,29.57,SE,130,5.0,11.0,77,0.00,,,0.11,Wunderground v.1.15,2013-04-06 21:32:00,
2013-04-06 16:38:00,42.5,36.1,29.57,SE,128,6.0,11.0,78,0.00,,,0.11,Wunderground v.1.15,2013-04-06 21:38:00,
2013-04-06 16:44:00,42.3,36.3,29.56,SE,126,5.0,11.0,79,0.00,,,0.11,Wunderground v.1.15,2013-04-06 21:44:00,
2013-04-06 16:50:00,42.0,36.0,29.56,SE,128,5.0,5.0,79,0.00,,,0.11,Wunderground v.1.15,2013-04-06 21:50:00,
2013-04-06 16:55:00,42.0,36.3,29.55,ESE,113,4.0,11.0,80,0.00,,,0.11,Wunderground v.1.15,2013-04-06 21:55:00,
2013-04-06 17:01:00,41.9,36.5,29.55,East,99,4.0,4.0,81,0.00,,,0.11,Wunderground v.1.15,2013-04-06 22:01:00,
2013-04-06 17:07:00,41.8,36.4,29.55,ESE,119,4.0,4.0,81,0.00,,,0.11,Wunderground v.1.15,2013-04-06 22:07:00,
2013-04-06 17:12:00,41.8,36.4,29.55,ESE,114,4.0,5.0,81,0.00,,,0.11,Wunderground v.1.15,2013-04-06 22:12:00,
2013-04-06 17:18:00,41.9,36.2,29.54,ESE,103,4.0,8.0,80,0.00,,,0.12,Wunderground v.1.15,2013-04-06 22:18:00,
2013-04-06 17:23:00,42.0,36.3,29.54,SE,130,4.0,7.0,80,0.00,,,0.12,Wunderground v.1.15,2013-04-06 22:23:00,
2013-04-06 17:29:00,42.0,36.0,29.54,ESE,119,5.0,7.0,79,0.00,,,0.12,Wunderground v.1.15,2013-04-06 22:29:00,
2013-04-06 17:35:00,42.1,36.1,29.54,ESE,107,5.0,10.0,79,0.00,,,0.12,Wunderground v.1.15,2013-04-06 22:35:00,
2013-04-06 17:41:00,42.1,36.1,29.53,ESE,104,5.0,9.0,79,0.00,,,0.12,Wunderground v.1.15,2013-04-06 22:41:00,
2013-04-06 17:46:00,42.1,36.1,29.53,ESE,114,4.0,9.0,79,0.00,,,0.12,Wunderground v.1.15,2013-04-06 22:46:00,
2013-04-06 17:51:00,42.1,36.1,29.53,ESE,111,5.0,9.0,79,0.00,,,0.12,Wunderground v.1.15,2013-04-06 22:51:00,
2013-04-06 17:56:00,42.0,36.3,29.53,SE,141,5.0,9.0,80,0.00,,,0.12,Wunderground v.1.15,2013-04-06 22:56:00,
2013-04-06 18:02:00,41.7,36.6,29.53,SE,136,5.0,5.0,82,0.00,,,0.13,Wunderground v.1.15,2013-04-06 23:02:00,
2013-04-06 18:07:00,41.3,36.5,29.53,ESE,112,5.0,8.0,83,0.00,,,0.13,Wunderground v.1.15,2013-04-06 23:07:00,
2013-04-06 18:13:00,41.1,36.9,29.53,ESE,112,5.0,6.0,85,0.05,,,0.14,Wunderground v.1.15,2013-04-06 23:13:00,
2013-04-06 18:18:00,40.8,36.6,29.53,ESE,113,4.0,6.0,85,0.10,,,0.15,Wunderground v.1.15,2013-04-06 23:18:00,
2013-04-06 18:23:00,40.5,36.6,29.53,SE,125,4.0,5.0,86,0.06,,,0.15,Wunderground v.1.15,2013-04-06 23:23:00,
2013-04-06 18:29:00,40.5,36.9,29.53,ESE,111,4.0,5.0,87,0.05,,,0.16,Wunderground v.1.15,2013-04-06 23:29:00,
2013-04-06 18:34:00,40.4,37.1,29.52,ESE,119,4.0,10.0,88,0.11,,,0.17,Wunderground v.1.15,2013-04-06 23:34:00,
2013-04-06 18:40:00,40.3,37.3,29.52,SE,126,5.0,10.0,89,0.08,,,0.18,Wunderground v.1.15,2013-04-06 23:40:00,
2013-04-06 18:45:00,40.3,37.3,29.51,ESE,111,6.0,10.0,89,0.11,,,0.19,Wunderground v.1.15,2013-04-06 23:45:00,
2013-04-06 18:50:00,40.1,37.1,29.51,ESE,119,5.0,10.0,89,0.09,,,0.20,Wunderground v.1.15,2013-04-06 23:50:00,
2013-04-06 18:56:00,39.9,37.2,29.51,East,88,5.0,10.0,90,0.13,,,0.21,Wunderground v.1.15,2013-04-06 23:56:00,
2013-04-06 19:02:00,39.8,37.1,29.51,ENE,67,4.0,7.0,90,0.09,,,0.21,Wunderground v.1.15,2013-04-07 00:02:00,
2013-04-06 19:08:00,39.7,37.3,29.50,ESE,114,3.0,7.0,91,0.08,,,0.22,Wunderground v.1.15,2013-04-07 00:08:00,
2013-04-06 19:13:00,39.6,37.2,29.50,ESE,115,3.0,3.0,91,0.10,,,0.23,Wunderground v.1.15,2013-04-07 00:13:00,
2013-04-06 19:19:00,39.5,37.4,29.50,ESE,115,3.0,7.0,92,0.08,,,0.24,Wunderground v.1.15,2013-04-07 00:19:00,
2013-04-06 19:24:00,39.4,37.3,29.49,ESE,121,3.0,5.0,92,0.12,,,0.25,Wunderground v.1.15,2013-04-07 00:24:00,
2013-04-06 19:29:00,39.4,37.3,29.50,ESE,106,3.0,5.0,92,0.08,,,0.26,Wunderground v.1.15,2013-04-07 00:29:00,
2013-04-06 19:35:00,39.3,37.2,29.50,ESE,123,3.0,9.0,92,0.12,,,0.27,Wunderground v.1.15,2013-04-07 00:35:00,
2013-04-06 19:40:00,39.2,37.1,29.50,ESE,110,2.0,2.0,92,0.09,,,0.27,Wunderground v.1.15,2013-04-07 00:40:00,
2013-04-06 19:46:00,39.1,37.2,29.49,ESE,105,2.0,9.0,93,0.19,,,0.29,Wunderground v.1.15,2013-04-07 00:46:00,
2013-04-06 19:52:00,39.1,37.2,29.49,ESE,107,1.0,9.0,93,0.08,,,0.30,Wunderground v.1.15,2013-04-07 00:52:00,
2013-04-06 19:57:00,39.1,37.2,29.49,SE,126,2.0,9.0,93,0.13,,,0.31,Wunderground v.1.15,2013-04-07 00:57:00,
2013-04-06 20:02:00,39.0,37.1,29.49,SE,126,1.0,2.0,93,0.09,,,0.31,Wunderground v.1.15,2013-04-07 01:02:00,
2013-04-06 20:08:00,39.0,37.1,29.49,ESE,115,2.0,3.0,93,0.13,,,0.33,Wunderground v.1.15,2013-04-07 01:08:00,
2013-04-06 20:13:00,39.1,37.5,29.49,SE,130,2.0,3.0,94,0.11,,,0.33,Wunderground v.1.15,2013-04-07 01:13:00,
2013-04-06 20:19:00,39.1,37.5,29.49,SE,136,2.0,3.0,94,0.09,,,0.34,Wunderground v.1.15,2013-04-07 01:19:00,
2013-04-06 20:24:00,39.0,37.1,29.48,SE,127,3.0,4.0,93,0.13,,,0.35,Wunderground v.1.15,2013-04-07 01:24:00,
2013-04-06 20:30:00,39.1,37.5,29.48,ESE,107,3.0,3.0,94,0.07,,,0.36,Wunderground v.1.15,2013-04-07 01:30:00,
2013-04-06 20:35:00,38.9,37.3,29.48,SE,130,3.0,7.0,94,0.10,,,0.37,Wunderground v.1.15,2013-04-07 01:35:00,
2013-04-06 20:40:00,38.9,37.3,29.48,ESE,117,2.0,3.0,94,0.11,,,0.38,Wunderground v.1.15,2013-04-07 01:40:00,
2013-04-06 20:46:00,39.0,37.4,29.48,ESE,114,2.0,7.0,94,0.17,,,0.39,Wunderground v.1.15,2013-04-07 01:46:00,
2013-04-06 20:52:00,38.9,37.3,29.48,ESE,114,2.0,7.0,94,0.06,,,0.39,Wunderground v.1.15,2013-04-07 01:52:00,
2013-04-06 20:57:00,38.6,37.0,29.48,ESE,114,1.0,7.0,94,0.06,,,0.40,Wunderground v.1.15,2013-04-07 01:57:00,
2013-04-06 21:02:00,38.5,36.9,29.48,ESE,114,1.0,1.0,94,0.07,,,0.40,Wunderground v.1.15,2013-04-07 02:02:00,
2013-04-06 21:08:00,38.5,36.9,29.48,ESE,114,1.0,2.0,94,0.07,,,0.41,Wunderground v.1.15,2013-04-07 02:08:00,
2013-04-06 21:13:00,38.5,36.9,29.49,ESE,114,1.0,2.0,94,0.05,,,0.41,Wunderground v.1.15,2013-04-07 02:13:00,
2013-04-06 21:18:00,38.3,36.7,29.50,NW,319,3.0,8.0,94,0.04,,,0.41,Wunderground v.1.15,2013-04-07 02:18:00,
2013-04-06 21:23:00,38.3,36.7,29.51,NW,311,7.0,9.0,94,0.04,,,0.42,Wunderground v.1.15,2013-04-07 02:23:00,
2013-04-06 21:29:00,38.5,36.9,29.51,WNW,292,8.0,10.0,94,0.07,,,0.43,Wunderground v.1.15,2013-04-07 02:29:00,
2013-04-06 21:34:00,38.6,37.0,29.51,NNW,335,7.0,8.0,94,0.07,,,0.43,Wunderground v.1.15,2013-04-07 02:34:00,
2013-04-06 21:40:00,38.6,37.0,29.51,NNW,327,6.0,7.0,94,0.05,,,0.43,Wunderground v.1.15,2013-04-07 02:40:00,
2013-04-06 21:45:00,38.7,37.1,29.51,NNW,343,6.0,9.0,94,0.00,,,0.43,Wunderground v.1.15,2013-04-07 02:45:00,
2013-04-06 21:51:00,38.7,37.1,29.51,North,355,6.0,7.0,94,0.00,,,0.44,Wunderground v.1.15,2013-04-07 02:51:00,
2013-04-06 21:56:00,38.6,37.0,29.51,NNW,328,5.0,7.0,94,0.00,,,0.44,Wunderground v.1.15,2013-04-07 02:56:00,
2013-04-06 22:02:00,38.5,36.9,29.51,NW,321,5.0,6.0,94,0.00,,,0.44,Wunderground v.1.15,2013-04-07 03:02:00,
2013-04-06 22:08:00,38.7,37.4,29.52,NNW,336,6.0,8.0,95,0.00,,,0.44,Wunderground v.1.15,2013-04-07 03:08:00,
2013-04-06 22:14:00,38.7,37.4,29.52,NW,323,7.0,8.0,95,0.00,,,0.45,Wunderground v.1.15,2013-04-07 03:14:00,
2013-04-06 22:20:00,38.7,37.1,29.52,NNW,337,7.0,7.0,94,0.00,,,0.45,Wunderground v.1.15,2013-04-07 03:20:00,
2013-04-06 22:25:00,38.7,37.1,29.52,WNW,302,7.0,10.0,94,0.00,,,0.45,Wunderground v.1.15,2013-04-07 03:25:00,
2013-04-06 22:30:00,38.7,37.1,29.53,NNW,331,8.0,16.0,94,0.00,,,0.45,Wunderground v.1.15,2013-04-07 03:30:00,
2013-04-06 22:35:00,38.6,37.0,29.53,North,355,8.0,16.0,94,0.00,,,0.45,Wunderground v.1.15,2013-04-07 03:35:00,
2013-04-06 22:41:00,38.5,36.9,29.53,NNW,346,8.0,16.0,94,0.00,,,0.45,Wunderground v.1.15,2013-04-07 03:41:00,
2013-04-06 22:47:00,38.5,36.9,29.53,WNW,296,8.0,16.0,94,0.00,,,0.45,Wunderground v.1.15,2013-04-07 03:47:00,
2013-04-06 22:53:00,38.4,36.8,29.54,WNW,294,8.0,16.0,94,0.00,,,0.46,Wunderground v.1.15,2013-04-07 03:53:00,
2013-04-06 22:58:00,38.2,36.6,29.54,NW,306,8.0,16.0,94,0.00,,,0.46,Wunderground v.1.15,2013-04-07 03:58:00,
2013-04-06 23:00:00,38.2,36.4,29.54,WNW,298,8.0,8.0,93,0.00,,,0.46,Wunderground v.1.15,2013-04-07 04:00:00,
2013-04-06 23:01:00,38.1,36.3,29.54,NW,312,7.0,10.0,93,0.00,,,0.46,Wunderground v.1.15,2013-04-07 04:01:00,
2013-04-06 23:02:00,38.1,36.3,29.54,NW,311,8.0,15.0,93,0.00,,,0.46,Wunderground v.1.15,2013-04-07 04:02:00,
2013-04-06 23:06:00,38.0,36.2,29.54,NW,322,9.0,15.0,93,0.04,,,0.47,Wunderground v.1.15,2013-04-07 04:06:00,
2013-04-06 23:12:00,37.8,36.0,29.54,NW,315,9.0,14.0,93,0.04,,,0.47,Wunderground v.1.15,2013-04-07 04:12:00,
2013-04-06 23:17:00,37.5,35.4,29.55,NW,325,10.0,19.0,92,0.04,,,0.47,Wunderground v.1.15,2013-04-07 04:17:00,
2013-04-06 23:24:00,37.1,35.0,29.55,WNW,293,10.0,10.0,92,0.00,,,0.47,Wunderground v.1.15,2013-04-07 04:24:00,
2013-04-06 23:29:00,36.8,34.7,29.56,WSW,258,8.0,8.0,92,0.00,,,0.47,Wunderground v.1.15,2013-04-07 04:29:00,
2013-04-06 23:34:00,36.7,34.6,29.56,NNW,327,9.0,12.0,92,0.00,,,0.47,Wunderground v.1.15,2013-04-07 04:34:00,
2013-04-06 23:40:00,36.6,34.5,29.56,NW,305,9.0,12.0,92,0.00,,,0.47,Wunderground v.1.15,2013-04-07 04:40:00,
2013-04-06 23:45:00,36.5,34.4,29.56,NW,323,9.0,13.0,92,0.00,,,0.47,Wunderground v.1.15,2013-04-07 04:45:00,
2013-04-06 23:50:00,36.4,34.3,29.56,NNW,329,11.0,16.0,92,0.00,,,0.47,Wunderground v.1.15,2013-04-07 04:50:00,
2013-04-06 23:57:00,36.4,34.0,29.56,NW,326,12.0,16.0,91,0.00,,,0.47,Wunderground v.1.15,2013-04-07 04:57:00,